sensor_id;sensor_type;location;lat;lon;timestamp;pressure;altitude;pressure_sealevel;temperature;humidity
51359;BME280;37448;51.588;7.248;2023-02-28T00:00:23;102419.22;;;-2.06;81.23
51359;BME280;37448;51.588;7.248;2023-02-28T00:02:24;102423.75;;;-2.02;79.49
51359;BME280;37448;51.588;7.248;2023-02-28T00:04:24;102430.47;;;-2.04;79.71
51359;BME280;37448;51.588;7.248;2023-02-28T00:06:25;102425.94;;;-2.08;80.47
51359;BME280;37448;51.588;7.248;2023-02-28T00:08:26;102429.41;;;-2.07;80.36
51359;BME280;37448;51.588;7.248;2023-02-28T00:10:29;102424.97;;;-2.10;81.07
51359;BME280;37448;51.588;7.248;2023-02-28T00:12:29;102424.50;;;-2.18;82.56
51359;BME280;37448;51.588;7.248;2023-02-28T00:14:30;102429.84;;;-2.14;80.84
51359;BME280;37448;51.588;7.248;2023-02-28T00:16:30;102430.19;;;-2.08;77.36
51359;BME280;37448;51.588;7.248;2023-02-28T00:18:31;102425.41;;;-2.17;81.66
51359;BME280;37448;51.588;7.248;2023-02-28T00:20:31;102429.91;;;-2.13;79.41
51359;BME280;37448;51.588;7.248;2023-02-28T00:22:32;102430.34;;;-2.20;80.59
51359;BME280;37448;51.588;7.248;2023-02-28T00:24:32;102427.88;;;-2.19;79.08
51359;BME280;37448;51.588;7.248;2023-02-28T00:26:32;102428.41;;;-2.24;81.52
51359;BME280;37448;51.588;7.248;2023-02-28T00:28:33;102428.41;;;-2.24;80.86
51359;BME280;37448;51.588;7.248;2023-02-28T00:30:33;102431.56;;;-2.28;82.82
51359;BME280;37448;51.588;7.248;2023-02-28T00:32:34;102424.34;;;-2.21;78.98
51359;BME280;37448;51.588;7.248;2023-02-28T00:34:35;102429.72;;;-2.16;77.64
51359;BME280;37448;51.588;7.248;2023-02-28T00:36:37;102430.72;;;-2.14;78.67
51359;BME280;37448;51.588;7.248;2023-02-28T00:38:40;102430.03;;;-2.11;79.17
51359;BME280;37448;51.588;7.248;2023-02-28T00:40:41;102427.53;;;-2.10;77.85
51359;BME280;37448;51.588;7.248;2023-02-28T00:42:41;102435.66;;;-2.17;82.01
51359;BME280;37448;51.588;7.248;2023-02-28T00:44:41;102434.84;;;-2.16;79.06
51359;BME280;37448;51.588;7.248;2023-02-28T00:46:42;102434.50;;;-2.22;81.76
51359;BME280;37448;51.588;7.248;2023-02-28T00:48:42;102430.97;;;-2.24;79.67
51359;BME280;37448;51.588;7.248;2023-02-28T00:50:43;102434.38;;;-2.24;81.82
51359;BME280;37448;51.588;7.248;2023-02-28T00:52:43;102432.56;;;-2.26;82.89
51359;BME280;37448;51.588;7.248;2023-02-28T00:54:44;102434.13;;;-2.28;80.92
51359;BME280;37448;51.588;7.248;2023-02-28T00:56:44;102430.50;;;-2.32;81.80
51359;BME280;37448;51.588;7.248;2023-02-28T00:58:46;102436.13;;;-2.38;83.44
51359;BME280;37448;51.588;7.248;2023-02-28T01:00:46;102441.06;;;-2.41;84.24
51359;BME280;37448;51.588;7.248;2023-02-28T01:02:48;102449.41;;;-2.43;83.73
51359;BME280;37448;51.588;7.248;2023-02-28T01:04:49;102442.47;;;-2.46;82.18
51359;BME280;37448;51.588;7.248;2023-02-28T01:06:49;102440.88;;;-2.44;82.14
51359;BME280;37448;51.588;7.248;2023-02-28T01:08:50;102449.84;;;-2.51;82.43
51359;BME280;37448;51.588;7.248;2023-02-28T01:10:50;102444.44;;;-2.55;83.40
51359;BME280;37448;51.588;7.248;2023-02-28T01:12:50;102444.97;;;-2.61;83.75
51359;BME280;37448;51.588;7.248;2023-02-28T01:14:51;102446.44;;;-2.65;83.80
51359;BME280;37448;51.588;7.248;2023-02-28T01:16:51;102440.97;;;-2.71;84.25
51359;BME280;37448;51.588;7.248;2023-02-28T01:18:52;102442.34;;;-2.76;83.75
51359;BME280;37448;51.588;7.248;2023-02-28T01:20:52;102443.72;;;-2.81;84.24
51359;BME280;37448;51.588;7.248;2023-02-28T01:22:53;102446.09;;;-2.84;84.52
51359;BME280;37448;51.588;7.248;2023-02-28T01:24:53;102432.13;;;-2.90;84.18
51359;BME280;37448;51.588;7.248;2023-02-28T01:26:54;102431.75;;;-2.96;84.01
51359;BME280;37448;51.588;7.248;2023-02-28T01:28:55;102435.88;;;-2.98;84.20
51359;BME280;37448;51.588;7.248;2023-02-28T01:30:56;102429.78;;;-3.00;83.93
51359;BME280;37448;51.588;7.248;2023-02-28T01:32:56;102439.00;;;-3.02;83.99
51359;BME280;37448;51.588;7.248;2023-02-28T01:34:59;102437.16;;;-3.05;84.33
51359;BME280;37448;51.588;7.248;2023-02-28T01:36:59;102431.75;;;-3.09;84.35
51359;BME280;37448;51.588;7.248;2023-02-28T01:38:59;102429.00;;;-3.12;84.62
51359;BME280;37448;51.588;7.248;2023-02-28T01:41:01;102434.78;;;-3.15;84.58
51359;BME280;37448;51.588;7.248;2023-02-28T01:43:01;102420.97;;;-3.19;84.43
51359;BME280;37448;51.588;7.248;2023-02-28T01:45:34;102423.41;;;-3.20;83.92
51359;BME280;37448;51.588;7.248;2023-02-28T01:47:39;102420.56;;;-3.25;84.31
51359;BME280;37448;51.588;7.248;2023-02-28T01:49:41;102419.69;;;-3.25;84.16
51359;BME280;37448;51.588;7.248;2023-02-28T01:51:45;102417.00;;;-3.27;84.37
51359;BME280;37448;51.588;7.248;2023-02-28T01:53:59;102416.81;;;-3.30;84.17
51359;BME280;37448;51.588;7.248;2023-02-28T01:56:04;102417.44;;;-3.21;81.76
51359;BME280;37448;51.588;7.248;2023-02-28T01:58:07;102425.69;;;-3.25;83.53
51359;BME280;37448;51.588;7.248;2023-02-28T02:00:12;102417.72;;;-3.29;83.53
51359;BME280;37448;51.588;7.248;2023-02-28T02:02:16;102415.25;;;-3.28;82.70
51359;BME280;37448;51.588;7.248;2023-02-28T02:04:18;102414.00;;;-3.35;83.95
51359;BME280;37448;51.588;7.248;2023-02-28T02:06:19;102409.38;;;-3.40;83.80
51359;BME280;37448;51.588;7.248;2023-02-28T02:08:23;102406.03;;;-3.39;82.62
51359;BME280;37448;51.588;7.248;2023-02-28T02:12:57;102404.53;;;-3.49;82.76
51359;BME280;37448;51.588;7.248;2023-02-28T02:15:40;102402.47;;;-3.55;83.08
51359;BME280;37448;51.588;7.248;2023-02-28T02:17:46;102399.91;;;-3.55;82.79
51359;BME280;37448;51.588;7.248;2023-02-28T02:20:13;102398.66;;;-3.62;82.93
51359;BME280;37448;51.588;7.248;2023-02-28T02:34:31;102400.97;;;-3.78;83.53
51359;BME280;37448;51.588;7.248;2023-02-28T02:36:44;102400.78;;;-3.81;83.71
51359;BME280;37448;51.588;7.248;2023-02-28T02:39:13;102401.56;;;-3.82;83.96
51359;BME280;37448;51.588;7.248;2023-02-28T02:41:40;102395.47;;;-3.84;83.55
51359;BME280;37448;51.588;7.248;2023-02-28T02:43:51;102402.34;;;-3.83;83.63
51359;BME280;37448;51.588;7.248;2023-02-28T02:46:01;102407.34;;;-3.85;83.29
51359;BME280;37448;51.588;7.248;2023-02-28T02:48:04;102397.91;;;-3.86;83.55
51359;BME280;37448;51.588;7.248;2023-02-28T02:50:08;102393.78;;;-3.84;83.30
51359;BME280;37448;51.588;7.248;2023-02-28T02:52:14;102402.84;;;-3.89;83.19
51359;BME280;37448;51.588;7.248;2023-02-28T02:54:28;102404.41;;;-3.91;83.63
51359;BME280;37448;51.588;7.248;2023-02-28T02:56:31;102399.38;;;-3.90;83.78
51359;BME280;37448;51.588;7.248;2023-02-28T02:58:37;102399.97;;;-3.94;83.80
51359;BME280;37448;51.588;7.248;2023-02-28T03:00:49;102411.06;;;-3.93;83.83
51359;BME280;37448;51.588;7.248;2023-02-28T03:02:54;102398.19;;;-3.95;83.61
51359;BME280;37448;51.588;7.248;2023-02-28T03:05:00;102404.59;;;-3.88;81.99
51359;BME280;37448;51.588;7.248;2023-02-28T03:07:01;102404.19;;;-3.94;83.55
51359;BME280;37448;51.588;7.248;2023-02-28T03:09:02;102401.66;;;-3.94;83.23
51359;BME280;37448;51.588;7.248;2023-02-28T03:11:13;102408.53;;;-3.93;83.60
51359;BME280;37448;51.588;7.248;2023-02-28T03:15:55;102400.44;;;-3.99;83.29
51359;BME280;37448;51.588;7.248;2023-02-28T03:18:16;102399.44;;;-4.01;83.66
51359;BME280;37448;51.588;7.248;2023-02-28T03:27:00;102391.31;;;-4.09;83.53
51359;BME280;37448;51.588;7.248;2023-02-28T03:33:28;102392.97;;;-4.10;82.99
51359;BME280;37448;51.588;7.248;2023-02-28T03:35:38;102400.28;;;-4.14;82.96
51359;BME280;37448;51.588;7.248;2023-02-28T03:37:42;102401.19;;;-4.14;82.39
51359;BME280;37448;51.588;7.248;2023-02-28T03:39:47;102395.69;;;-4.20;82.65
51359;BME280;37448;51.588;7.248;2023-02-28T03:41:59;102398.78;;;-4.24;82.62
51359;BME280;37448;51.588;7.248;2023-02-28T03:44:06;102401.34;;;-4.24;82.91
51359;BME280;37448;51.588;7.248;2023-02-28T03:46:12;102403.69;;;-4.27;83.12
51359;BME280;37448;51.588;7.248;2023-02-28T03:48:20;102406.16;;;-4.29;82.83
51359;BME280;37448;51.588;7.248;2023-02-28T03:50:30;102409.69;;;-4.27;82.95
51359;BME280;37448;51.588;7.248;2023-02-28T03:52:42;102401.13;;;-4.27;83.07
51359;BME280;37448;51.588;7.248;2023-02-28T03:54:49;102404.38;;;-4.30;82.88
51359;BME280;37448;51.588;7.248;2023-02-28T03:57:07;102410.28;;;-4.31;82.99
51359;BME280;37448;51.588;7.248;2023-02-28T03:59:20;102406.81;;;-4.32;82.65
51359;BME280;37448;51.588;7.248;2023-02-28T04:01:36;102404.06;;;-4.35;82.88
51359;BME280;37448;51.588;7.248;2023-02-28T04:03:38;102408.19;;;-4.37;82.92
51359;BME280;37448;51.588;7.248;2023-02-28T04:05:48;102409.75;;;-4.39;83.02
51359;BME280;37448;51.588;7.248;2023-02-28T04:07:50;102416.63;;;-4.38;83.08
51359;BME280;37448;51.588;7.248;2023-02-28T04:09:51;102403.75;;;-4.39;83.16
51359;BME280;37448;51.588;7.248;2023-02-28T04:11:52;102410.53;;;-4.40;83.25
51359;BME280;37448;51.588;7.248;2023-02-28T04:13:52;102409.75;;;-4.39;83.07
51359;BME280;37448;51.588;7.248;2023-02-28T04:15:53;102410.22;;;-4.19;81.16
51359;BME280;37448;51.588;7.248;2023-02-28T04:17:53;102407.94;;;-4.28;82.39
51359;BME280;37448;51.588;7.248;2023-02-28T04:19:54;102408.94;;;-4.12;80.14
51359;BME280;37448;51.588;7.248;2023-02-28T04:21:56;102408.88;;;-4.00;79.34
51359;BME280;37448;51.588;7.248;2023-02-28T04:23:57;102405.53;;;-3.99;79.80
51359;BME280;37448;51.588;7.248;2023-02-28T04:26:00;102409.84;;;-3.98;79.09
51359;BME280;37448;51.588;7.248;2023-02-28T04:28:01;102414.59;;;-3.91;78.18
51359;BME280;37448;51.588;7.248;2023-02-28T04:30:01;102419.31;;;-3.97;79.72
51359;BME280;37448;51.588;7.248;2023-02-28T04:32:02;102412.41;;;-3.98;79.92
51359;BME280;37448;51.588;7.248;2023-02-28T04:34:03;102413.50;;;-3.95;79.33
51359;BME280;37448;51.588;7.248;2023-02-28T04:36:05;102423.63;;;-3.96;79.29
51359;BME280;37448;51.588;7.248;2023-02-28T04:38:06;102409.09;;;-3.97;79.81
51359;BME280;37448;51.588;7.248;2023-02-28T04:40:07;102423.06;;;-3.92;78.73
51359;BME280;37448;51.588;7.248;2023-02-28T04:42:08;102416.97;;;-3.94;79.06
51359;BME280;37448;51.588;7.248;2023-02-28T04:44:08;102416.84;;;-3.96;79.91
51359;BME280;37448;51.588;7.248;2023-02-28T04:46:09;102417.75;;;-3.95;79.19
51359;BME280;37448;51.588;7.248;2023-02-28T04:48:10;102420.19;;;-3.97;78.98
51359;BME280;37448;51.588;7.248;2023-02-28T04:50:10;102421.88;;;-3.97;79.22
51359;BME280;37448;51.588;7.248;2023-02-28T04:52:10;102424.19;;;-4.00;80.00
51359;BME280;37448;51.588;7.248;2023-02-28T04:54:11;102417.31;;;-4.01;79.76
51359;BME280;37448;51.588;7.248;2023-02-28T04:56:14;102415.47;;;-4.04;80.20
51359;BME280;37448;51.588;7.248;2023-02-28T04:58:14;102418.69;;;-4.07;80.78
51359;BME280;37448;51.588;7.248;2023-02-28T05:00:15;102413.56;;;-4.07;80.15
51359;BME280;37448;51.588;7.248;2023-02-28T05:02:16;102417.81;;;-4.07;80.45
51359;BME280;37448;51.588;7.248;2023-02-28T05:04:17;102417.69;;;-4.09;80.04
51359;BME280;37448;51.588;7.248;2023-02-28T05:06:18;102421.81;;;-4.11;79.88
51359;BME280;37448;51.588;7.248;2023-02-28T05:08:19;102416.91;;;-4.08;80.38
51359;BME280;37448;51.588;7.248;2023-02-28T05:10:19;102416.91;;;-4.08;80.54
51359;BME280;37448;51.588;7.248;2023-02-28T05:12:19;102427.03;;;-4.09;80.38
51359;BME280;37448;51.588;7.248;2023-02-28T05:14:20;102426.91;;;-4.11;80.67
51359;BME280;37448;51.588;7.248;2023-02-28T05:16:21;102424.94;;;-4.15;81.02
51359;BME280;37448;51.588;7.248;2023-02-28T05:18:21;102432.50;;;-4.16;81.41
51359;BME280;37448;51.588;7.248;2023-02-28T05:20:22;102424.16;;;-4.14;80.68
51359;BME280;37448;51.588;7.248;2023-02-28T05:22:22;102425.81;;;-4.14;80.68
51359;BME280;37448;51.588;7.248;2023-02-28T05:24:23;102428.16;;;-4.18;81.11
51359;BME280;37448;51.588;7.248;2023-02-28T05:26:23;102440.16;;;-4.16;80.76
51359;BME280;37448;51.588;7.248;2023-02-28T05:28:24;102433.97;;;-4.20;81.23
51359;BME280;37448;51.588;7.248;2023-02-28T05:30:24;102437.72;;;-4.15;80.02
51359;BME280;37448;51.588;7.248;2023-02-28T05:32:25;102435.25;;;-4.13;80.41
51359;BME280;37448;51.588;7.248;2023-02-28T05:34:25;102434.25;;;-4.15;80.43
51359;BME280;37448;51.588;7.248;2023-02-28T05:36:26;102433.19;;;-4.19;80.79
51359;BME280;37448;51.588;7.248;2023-02-28T05:38:26;102433.19;;;-4.19;80.83
51359;BME280;37448;51.588;7.248;2023-02-28T05:40:27;102441.81;;;-4.17;80.92
51359;BME280;37448;51.588;7.248;2023-02-28T05:42:27;102440.25;;;-4.15;79.95
51359;BME280;37448;51.588;7.248;2023-02-28T05:44:28;102443.41;;;-4.19;80.69
51359;BME280;37448;51.588;7.248;2023-02-28T05:46:28;102441.63;;;-4.20;80.58
51359;BME280;37448;51.588;7.248;2023-02-28T05:48:29;102450.28;;;-4.18;80.33
51359;BME280;37448;51.588;7.248;2023-02-28T05:50:29;102446.59;;;-4.22;80.76
51359;BME280;37448;51.588;7.248;2023-02-28T05:52:29;102447.19;;;-4.26;80.90
51359;BME280;37448;51.588;7.248;2023-02-28T05:54:30;102448.25;;;-4.22;80.75
51359;BME280;37448;51.588;7.248;2023-02-28T05:56:31;102446.28;;;-4.26;81.54
51359;BME280;37448;51.588;7.248;2023-02-28T05:58:31;102445.50;;;-4.25;81.11
51359;BME280;37448;51.588;7.248;2023-02-28T06:00:32;102452.09;;;-4.29;81.24
51359;BME280;37448;51.588;7.248;2023-02-28T06:02:32;102456.28;;;-4.29;80.99
51359;BME280;37448;51.588;7.248;2023-02-28T06:04:32;102449.22;;;-4.34;81.61
51359;BME280;37448;51.588;7.248;2023-02-28T06:06:33;102455.50;;;-4.28;80.76
51359;BME280;37448;51.588;7.248;2023-02-28T06:08:37;102461.19;;;-4.33;81.73
51359;BME280;37448;51.588;7.248;2023-02-28T06:10:37;102463.72;;;-4.33;81.65
51359;BME280;37448;51.588;7.248;2023-02-28T06:12:38;102458.44;;;-4.36;81.60
51359;BME280;37448;51.588;7.248;2023-02-28T06:14:38;102456.19;;;-4.31;81.45
51359;BME280;37448;51.588;7.248;2023-02-28T06:16:39;102462.75;;;-4.35;81.56
51359;BME280;37448;51.588;7.248;2023-02-28T06:18:39;102460.06;;;-4.36;81.44
51359;BME280;37448;51.588;7.248;2023-02-28T06:20:39;102459.22;;;-4.37;81.58
51359;BME280;37448;51.588;7.248;2023-02-28T06:22:40;102464.19;;;-4.38;82.18
51359;BME280;37448;51.588;7.248;2023-02-28T06:24:40;102469.19;;;-4.40;81.95
51359;BME280;37448;51.588;7.248;2023-02-28T06:26:40;102467.44;;;-4.41;81.89
51359;BME280;37448;51.588;7.248;2023-02-28T06:28:41;102474.09;;;-4.43;81.75
51359;BME280;37448;51.588;7.248;2023-02-28T06:30:41;102479.19;;;-4.43;81.76
51359;BME280;37448;51.588;7.248;2023-02-28T06:32:41;102475.66;;;-4.45;82.27
51359;BME280;37448;51.588;7.248;2023-02-28T06:34:42;102475.41;;;-4.48;82.34
51359;BME280;37448;51.588;7.248;2023-02-28T06:36:43;102476.31;;;-4.48;81.96
51359;BME280;37448;51.588;7.248;2023-02-28T06:38:44;102477.19;;;-4.47;81.75
51359;BME280;37448;51.588;7.248;2023-02-28T06:40:44;102469.31;;;-4.50;81.95
51359;BME280;37448;51.588;7.248;2023-02-28T06:42:45;102472.56;;;-4.53;82.41
51359;BME280;37448;51.588;7.248;2023-02-28T06:44:45;102481.88;;;-4.53;82.47
51359;BME280;37448;51.588;7.248;2023-02-28T06:46:46;102475.00;;;-4.54;82.58
51359;BME280;37448;51.588;7.248;2023-02-28T06:48:47;102472.56;;;-4.53;82.37
51359;BME280;37448;51.588;7.248;2023-02-28T06:50:47;102473.34;;;-4.54;82.94
51359;BME280;37448;51.588;7.248;2023-02-28T06:52:48;102480.31;;;-4.51;83.00
51359;BME280;37448;51.588;7.248;2023-02-28T06:54:48;102484.09;;;-4.46;82.19
51359;BME280;37448;51.588;7.248;2023-02-28T06:56:59;102484.97;;;-4.45;82.78
51359;BME280;37448;51.588;7.248;2023-02-28T06:59:00;102483.31;;;-4.45;82.36
51359;BME280;37448;51.588;7.248;2023-02-28T07:01:01;102488.50;;;-4.43;82.46
51359;BME280;37448;51.588;7.248;2023-02-28T07:03:01;102486.84;;;-4.43;82.93
51359;BME280;37448;51.588;7.248;2023-02-28T07:05:02;102480.97;;;-4.42;82.33
51359;BME280;37448;51.588;7.248;2023-02-28T07:07:02;102489.41;;;-4.43;82.66
51359;BME280;37448;51.588;7.248;2023-02-28T07:09:03;102487.84;;;-4.41;82.80
51359;BME280;37448;51.588;7.248;2023-02-28T07:11:04;102481.19;;;-4.39;82.99
51359;BME280;37448;51.588;7.248;2023-02-28T07:13:06;102485.72;;;-4.35;82.64
51359;BME280;37448;51.588;7.248;2023-02-28T07:15:07;102487.59;;;-4.32;82.82
51359;BME280;37448;51.588;7.248;2023-02-28T07:17:09;102487.81;;;-4.29;82.98
51359;BME280;37448;51.588;7.248;2023-02-28T07:19:11;102483.00;;;-4.24;83.05
51359;BME280;37448;51.588;7.248;2023-02-28T07:21:12;102491.97;;;-4.18;83.08
51359;BME280;37448;51.588;7.248;2023-02-28T07:23:12;102489.03;;;-4.10;83.99
51359;BME280;37448;51.588;7.248;2023-02-28T07:25:13;102495.72;;;-3.87;81.76
51359;BME280;37448;51.588;7.248;2023-02-28T07:27:13;102497.25;;;-3.25;80.66
51359;BME280;37448;51.588;7.248;2023-02-28T07:29:23;102501.09;;;-2.36;75.36
51359;BME280;37448;51.588;7.248;2023-02-28T07:31:23;102495.78;;;-1.67;74.48
51359;BME280;37448;51.588;7.248;2023-02-28T07:33:24;102498.13;;;-0.95;70.28
51359;BME280;37448;51.588;7.248;2023-02-28T07:35:24;102494.50;;;-0.35;74.82
51359;BME280;37448;51.588;7.248;2023-02-28T07:37:24;102495.44;;;0.17;66.60
51359;BME280;37448;51.588;7.248;2023-02-28T07:39:25;102497.69;;;0.98;68.85
51359;BME280;37448;51.588;7.248;2023-02-28T07:41:25;102503.38;;;1.47;65.23
51359;BME280;37448;51.588;7.248;2023-02-28T07:43:27;102503.28;;;2.03;75.23
51359;BME280;37448;51.588;7.248;2023-02-28T07:45:28;102507.00;;;2.50;70.12
51359;BME280;37448;51.588;7.248;2023-02-28T07:47:35;102500.13;;;2.70;57.29
51359;BME280;37448;51.588;7.248;2023-02-28T07:49:36;102500.22;;;2.95;56.97
51359;BME280;37448;51.588;7.248;2023-02-28T07:51:36;102499.38;;;3.63;56.75
51359;BME280;37448;51.588;7.248;2023-02-28T07:53:37;102499.16;;;3.81;56.86
51359;BME280;37448;51.588;7.248;2023-02-28T07:55:37;102506.47;;;3.93;57.46
51359;BME280;37448;51.588;7.248;2023-02-28T07:57:37;102504.34;;;4.31;55.39
51359;BME280;37448;51.588;7.248;2023-02-28T07:59:38;102511.94;;;4.78;55.93
51359;BME280;37448;51.588;7.248;2023-02-28T08:01:38;102507.19;;;5.20;56.25
51359;BME280;37448;51.588;7.248;2023-02-28T08:03:39;102505.41;;;5.78;51.84
51359;BME280;37448;51.588;7.248;2023-02-28T08:05:40;102511.81;;;6.20;50.19
51359;BME280;37448;51.588;7.248;2023-02-28T08:07:40;102506.41;;;6.46;56.64
51359;BME280;37448;51.588;7.248;2023-02-28T08:09:41;102504.25;;;6.29;49.96
51359;BME280;37448;51.588;7.248;2023-02-28T08:11:42;102504.44;;;6.03;46.00
51359;BME280;37448;51.588;7.248;2023-02-28T08:13:43;102519.88;;;6.66;51.58
51359;BME280;37448;51.588;7.248;2023-02-28T08:15:44;102516.88;;;6.49;47.31
51359;BME280;37448;51.588;7.248;2023-02-28T08:17:45;102513.84;;;6.67;50.18
51359;BME280;37448;51.588;7.248;2023-02-28T08:19:46;102514.88;;;6.74;46.01
51359;BME280;37448;51.588;7.248;2023-02-28T08:21:46;102507.66;;;6.62;43.68
51359;BME280;37448;51.588;7.248;2023-02-28T08:23:50;102502.38;;;7.32;48.88
51359;BME280;37448;51.588;7.248;2023-02-28T08:25:55;102510.34;;;7.40;49.89
51359;BME280;37448;51.588;7.248;2023-02-28T08:27:55;102503.97;;;7.67;43.37
51359;BME280;37448;51.588;7.248;2023-02-28T08:29:55;102504.53;;;7.52;43.97
51359;BME280;37448;51.588;7.248;2023-02-28T08:31:56;102503.38;;;7.82;42.76
51359;BME280;37448;51.588;7.248;2023-02-28T08:33:57;102507.75;;;7.42;46.82
51359;BME280;37448;51.588;7.248;2023-02-28T08:35:58;102506.41;;;8.05;42.33
51359;BME280;37448;51.588;7.248;2023-02-28T08:37:59;102514.75;;;7.86;40.98
51359;BME280;37448;51.588;7.248;2023-02-28T08:39:59;102506.94;;;8.33;44.26
51359;BME280;37448;51.588;7.248;2023-02-28T08:41:59;102497.34;;;8.31;39.32
51359;BME280;37448;51.588;7.248;2023-02-28T08:44:00;102504.28;;;8.81;43.12
51359;BME280;37448;51.588;7.248;2023-02-28T08:46:01;102501.00;;;7.93;38.19
51359;BME280;37448;51.588;7.248;2023-02-28T08:48:01;102498.28;;;8.85;46.58
51359;BME280;37448;51.588;7.248;2023-02-28T08:50:03;102492.09;;;8.28;42.52
51359;BME280;37448;51.588;7.248;2023-02-28T08:52:04;102495.84;;;7.96;41.37
51359;BME280;37448;51.588;7.248;2023-02-28T08:54:04;102498.53;;;8.01;42.95
51359;BME280;37448;51.588;7.248;2023-02-28T08:56:07;102499.88;;;7.82;39.14
51359;BME280;37448;51.588;7.248;2023-02-28T08:58:07;102500.03;;;8.36;40.76
51359;BME280;37448;51.588;7.248;2023-02-28T09:00:08;102501.16;;;8.02;37.63
51359;BME280;37448;51.588;7.248;2023-02-28T09:02:12;102501.47;;;7.72;38.92
51359;BME280;37448;51.588;7.248;2023-02-28T09:04:13;102499.94;;;7.83;37.84
51359;BME280;37448;51.588;7.248;2023-02-28T09:06:15;102504.09;;;8.69;46.07
51359;BME280;37448;51.588;7.248;2023-02-28T09:08:16;102511.53;;;9.02;41.88
51359;BME280;37448;51.588;7.248;2023-02-28T09:10:16;102500.03;;;8.36;36.13
51359;BME280;37448;51.588;7.248;2023-02-28T09:12:17;102506.91;;;8.83;43.17
51359;BME280;37448;51.588;7.248;2023-02-28T09:14:17;102498.84;;;8.67;37.77
51359;BME280;37448;51.588;7.248;2023-02-28T09:16:17;102502.91;;;9.05;39.96
51359;BME280;37448;51.588;7.248;2023-02-28T09:18:18;102490.25;;;8.22;38.41
51359;BME280;37448;51.588;7.248;2023-02-28T09:20:19;102491.84;;;8.15;36.16
51359;BME280;37448;51.588;7.248;2023-02-28T09:22:19;102494.75;;;7.40;36.40
51359;BME280;37448;51.588;7.248;2023-02-28T09:24:19;102493.28;;;8.47;39.67
51359;BME280;37448;51.588;7.248;2023-02-28T09:26:26;102488.81;;;8.40;37.78
51359;BME280;37448;51.588;7.248;2023-02-28T09:28:27;102491.69;;;8.06;34.56
51359;BME280;37448;51.588;7.248;2023-02-28T09:30:27;102492.44;;;8.00;37.88
51359;BME280;37448;51.588;7.248;2023-02-28T09:32:28;102486.66;;;7.69;36.46
51359;BME280;37448;51.588;7.248;2023-02-28T09:34:28;102488.50;;;8.21;35.41
51359;BME280;37448;51.588;7.248;2023-02-28T09:36:30;102487.88;;;7.88;36.67
51359;BME280;37448;51.588;7.248;2023-02-28T09:38:31;102487.72;;;7.36;37.05
51359;BME280;37448;51.588;7.248;2023-02-28T09:40:35;102495.28;;;8.13;37.02
51359;BME280;37448;51.588;7.248;2023-02-28T09:42:36;102491.56;;;8.49;35.33
51359;BME280;37448;51.588;7.248;2023-02-28T09:44:42;102489.03;;;9.08;38.74
51359;BME280;37448;51.588;7.248;2023-02-28T09:46:47;102491.91;;;8.68;35.37
51359;BME280;37448;51.588;7.248;2023-02-28T09:48:49;102485.59;;;9.10;36.45
51359;BME280;37448;51.588;7.248;2023-02-28T09:50:52;102476.63;;;9.56;37.52
51359;BME280;37448;51.588;7.248;2023-02-28T09:52:56;102487.41;;;9.87;35.21
51359;BME280;37448;51.588;7.248;2023-02-28T09:55:04;102492.19;;;9.50;37.45
51359;BME280;37448;51.588;7.248;2023-02-28T09:57:32;102491.28;;;9.46;35.65
51359;BME280;37448;51.588;7.248;2023-02-28T10:02:08;102489.06;;;9.09;35.41
51359;BME280;37448;51.588;7.248;2023-02-28T10:06:45;102492.53;;;8.53;35.20
51359;BME280;37448;51.588;7.248;2023-02-28T10:10:58;102497.59;;;8.99;34.85
51359;BME280;37448;51.588;7.248;2023-02-28T10:13:03;102491.31;;;8.33;35.30
51359;BME280;37448;51.588;7.248;2023-02-28T10:15:13;102498.34;;;8.38;35.25
51359;BME280;37448;51.588;7.248;2023-02-28T10:17:21;102487.78;;;7.82;35.18
51359;BME280;37448;51.588;7.248;2023-02-28T10:19:30;102488.25;;;8.07;35.51
51359;BME280;37448;51.588;7.248;2023-02-28T10:21:47;102485.03;;;7.74;34.61
51359;BME280;37448;51.588;7.248;2023-02-28T10:23:53;102475.38;;;8.15;35.16
51359;BME280;37448;51.588;7.248;2023-02-28T10:26:05;102479.59;;;8.08;34.08
51359;BME280;37448;51.588;7.248;2023-02-28T10:28:14;102472.69;;;8.10;33.67
51359;BME280;37448;51.588;7.248;2023-02-28T10:30:14;102471.78;;;8.57;33.80
51359;BME280;37448;51.588;7.248;2023-02-28T10:32:18;102481.78;;;8.86;35.48
51359;BME280;37448;51.588;7.248;2023-02-28T10:34:19;102471.78;;;9.17;35.26
51359;BME280;37448;51.588;7.248;2023-02-28T10:36:20;102464.47;;;8.92;35.16
51359;BME280;37448;51.588;7.248;2023-02-28T10:38:25;102471.53;;;8.45;33.50
51359;BME280;37448;51.588;7.248;2023-02-28T10:40:33;102465.75;;;8.60;32.54
51359;BME280;37448;51.588;7.248;2023-02-28T10:42:35;102474.88;;;8.88;33.94
51359;BME280;37448;51.588;7.248;2023-02-28T10:44:39;102476.91;;;8.53;31.35
51359;BME280;37448;51.588;7.248;2023-02-28T10:46:40;102464.78;;;8.05;31.83
51359;BME280;37448;51.588;7.248;2023-02-28T10:48:50;102468.09;;;7.11;33.21
51359;BME280;37448;51.588;7.248;2023-02-28T10:50:57;102469.44;;;6.56;34.30
51359;BME280;37448;51.588;7.248;2023-02-28T10:55:18;102456.53;;;5.60;36.92
51359;BME280;37448;51.588;7.248;2023-02-28T10:57:22;102467.09;;;5.36;37.00
51359;BME280;37448;51.588;7.248;2023-02-28T10:59:28;102458.50;;;4.80;37.74
51359;BME280;37448;51.588;7.248;2023-02-28T11:03:34;102460.97;;;4.22;39.45
51359;BME280;37448;51.588;7.248;2023-02-28T11:05:36;102457.91;;;3.84;40.35
51359;BME280;37448;51.588;7.248;2023-02-28T11:07:37;102455.47;;;3.64;40.06
51359;BME280;37448;51.588;7.248;2023-02-28T11:09:40;102457.63;;;3.76;41.16
51359;BME280;37448;51.588;7.248;2023-02-28T11:11:44;102457.94;;;3.61;41.91
51359;BME280;37448;51.588;7.248;2023-02-28T11:13:47;102462.53;;;3.45;40.71
51359;BME280;37448;51.588;7.248;2023-02-28T11:15:53;102457.38;;;3.45;41.16
51359;BME280;37448;51.588;7.248;2023-02-28T11:18:00;102458.28;;;3.46;40.96
51359;BME280;37448;51.588;7.248;2023-02-28T11:20:04;102458.38;;;3.49;40.88
51359;BME280;37448;51.588;7.248;2023-02-28T11:22:07;102462.78;;;3.52;41.68
51359;BME280;37448;51.588;7.248;2023-02-28T11:26:45;102462.94;;;3.32;41.99